createdAt,value
2023-03-25T00:02:24.198Z,13.54
2023-03-25T00:04:56.004Z,13.40
2023-03-25T00:07:26.359Z,13.40
2023-03-25T00:09:57.877Z,13.44
2023-03-25T00:15:12.750Z,13.34
2023-03-25T00:18:14.284Z,13.46
2023-03-25T00:20:45.939Z,13.48
2023-03-25T00:23:14.959Z,13.45
2023-03-25T00:25:45.830Z,13.48
2023-03-25T00:28:19.132Z,13.47
2023-03-25T00:30:52.775Z,13.48
2023-03-25T00:33:24.464Z,13.48
2023-03-25T00:36:02.448Z,13.50
2023-03-25T00:38:37.564Z,13.51
2023-03-25T00:41:36.432Z,13.51
2023-03-25T00:44:16.531Z,13.51
2023-03-25T00:46:44.562Z,13.49
2023-03-25T00:49:20.916Z,13.50
2023-03-25T00:51:55.949Z,13.42
2023-03-25T00:54:27.818Z,13.40
2023-03-25T00:56:58.906Z,13.45
2023-03-25T00:59:31.000Z,13.38
2023-03-25T01:02:06.901Z,13.39
2023-03-25T01:04:42.948Z,13.42
2023-03-25T01:07:16.526Z,13.29
2023-03-25T01:09:53.618Z,13.29
2023-03-25T01:12:25.112Z,13.15
2023-03-25T01:15:04.486Z,13.08
2023-03-25T01:17:39.541Z,13.05
2023-03-25T01:20:14.071Z,12.96
2023-03-25T01:22:54.918Z,12.89
2023-03-25T01:25:30.709Z,12.80
2023-03-25T01:28:04.213Z,12.82
2023-03-25T01:30:33.785Z,12.81
2023-03-25T01:33:15.380Z,12.91
2023-03-25T01:35:46.015Z,12.86
2023-03-25T01:38:16.542Z,12.58
2023-03-25T01:40:52.190Z,12.73
2023-03-25T01:43:26.735Z,12.56
2023-03-25T01:46:11.092Z,12.41
2023-03-25T01:48:45.170Z,12.47
2023-03-25T01:51:33.094Z,12.35
2023-03-25T01:54:03.850Z,12.35
2023-03-25T01:56:52.281Z,12.33
2023-03-25T01:59:31.262Z,12.32
2023-03-25T02:02:22.220Z,12.10
2023-03-25T02:05:10.906Z,12.03
2023-03-25T02:07:42.758Z,12.06
2023-03-25T02:10:18.889Z,12.04
2023-03-25T02:12:55.976Z,11.77
2023-03-25T02:15:26.421Z,11.79
2023-03-25T02:18:30.198Z,11.98
2023-03-25T02:21:22.645Z,12.07
2023-03-25T02:24:35.192Z,12.08
2023-03-25T02:27:28.119Z,11.93
2023-03-25T02:30:40.019Z,11.93
2023-03-25T02:33:34.819Z,11.80
2023-03-25T02:36:19.064Z,11.64
2023-03-25T02:39:07.860Z,11.93
2023-03-25T02:41:56.375Z,12.04
2023-03-25T02:45:36.969Z,11.93
2023-03-25T02:48:18.839Z,11.95
2023-03-25T02:51:18.768Z,11.99
2023-03-25T02:53:52.799Z,11.95
2023-03-25T02:56:29.700Z,11.84
2023-03-25T02:59:06.748Z,11.74
2023-03-25T03:01:37.165Z,11.75
2023-03-25T03:04:07.606Z,11.82
2023-03-25T03:06:42.231Z,11.63
2023-03-25T03:09:46.801Z,11.78
2023-03-25T03:13:06.241Z,11.58
2023-03-25T03:16:35.461Z,11.70
2023-03-25T03:19:39.172Z,11.88
2023-03-25T03:22:55.317Z,11.79
2023-03-25T03:25:51.735Z,11.65
2023-03-25T03:28:51.378Z,11.76
2023-03-25T03:31:48.214Z,11.61
2023-03-25T03:34:51.852Z,11.33
2023-03-25T03:37:32.179Z,11.24
2023-03-25T03:40:07.227Z,11.29
2023-03-25T03:43:05.828Z,11.44
2023-03-25T03:45:46.381Z,11.33
2023-03-25T03:48:33.123Z,11.58
2023-03-25T03:51:44.753Z,11.68
2023-03-25T03:54:28.492Z,11.73
2023-03-25T03:57:37.215Z,11.64
2023-03-25T04:03:05.072Z,11.73
2023-03-25T04:05:36.697Z,11.80
2023-03-25T04:08:32.000Z,11.75
2023-03-25T04:11:15.486Z,11.74
2023-03-25T04:13:48.231Z,11.68
2023-03-25T04:16:19.214Z,11.71
2023-03-25T04:18:56.304Z,11.65
2023-03-25T04:21:33.527Z,11.50
2023-03-25T04:24:02.612Z,11.32
2023-03-25T04:26:34.838Z,11.27
2023-03-25T04:29:05.528Z,11.25
2023-03-25T04:31:38.049Z,11.28
2023-03-25T04:34:08.280Z,11.22
2023-03-25T04:36:37.935Z,11.31
2023-03-25T04:39:08.416Z,11.55
2023-03-25T04:41:38.924Z,11.45
2023-03-25T04:44:11.198Z,11.55
2023-03-25T04:46:41.976Z,11.40
2023-03-25T04:49:19.188Z,11.50
2023-03-25T04:52:06.945Z,11.56
2023-03-25T04:54:38.599Z,11.56
2023-03-25T04:57:12.077Z,11.65
2023-03-25T04:59:43.038Z,11.68
2023-03-25T05:02:14.901Z,11.60
2023-03-25T05:04:50.678Z,11.56
2023-03-25T05:07:35.319Z,11.58
2023-03-25T05:10:07.094Z,11.43
2023-03-25T05:12:44.482Z,11.53
2023-03-25T05:15:20.837Z,11.50
2023-03-25T05:17:54.366Z,11.22
2023-03-25T05:20:26.172Z,11.41
2023-03-25T05:23:00.172Z,11.38
2023-03-25T05:25:34.681Z,11.08
2023-03-25T05:28:06.859Z,10.99
2023-03-25T05:30:39.226Z,11.12
2023-03-25T05:33:12.686Z,11.17
2023-03-25T05:35:41.096Z,11.11
2023-03-25T05:38:15.854Z,11.45
2023-03-25T05:40:51.020Z,11.61
2023-03-25T05:43:28.598Z,11.14
2023-03-25T05:45:58.711Z,11.13
2023-03-25T05:48:35.598Z,11.15
2023-03-25T05:51:18.478Z,11.01
2023-03-25T05:54:08.946Z,11.14
2023-03-25T05:56:39.991Z,11.08
2023-03-25T05:59:18.665Z,11.07
2023-03-25T06:01:50.049Z,11.04
2023-03-25T06:04:21.994Z,10.97
2023-03-25T06:06:50.865Z,11.06
2023-03-25T06:09:22.541Z,11.02
2023-03-25T06:12:01.276Z,11.07
2023-03-25T06:14:35.060Z,10.91
2023-03-25T06:17:05.920Z,10.64
2023-03-25T06:19:39.249Z,11.06
2023-03-25T06:22:12.202Z,10.90
2023-03-25T06:24:45.817Z,11.16
2023-03-25T06:27:26.124Z,11.07
2023-03-25T06:30:03.132Z,10.99
2023-03-25T06:35:21.998Z,11.04
2023-03-25T06:40:49.031Z,11.04
2023-03-25T06:43:18.920Z,11.03
2023-03-25T06:45:49.574Z,11.01
2023-03-25T06:48:36.680Z,10.83
2023-03-25T06:51:07.193Z,10.95
2023-03-25T06:53:37.371Z,10.99
2023-03-25T06:56:07.473Z,10.81
2023-03-25T07:01:29.195Z,10.86
2023-03-25T07:04:06.320Z,10.78
2023-03-25T07:06:39.410Z,10.75
2023-03-25T07:09:09.355Z,10.73
2023-03-25T07:11:39.998Z,10.67
2023-03-25T07:14:10.920Z,10.86
2023-03-25T07:16:41.208Z,10.79
2023-03-25T07:19:13.838Z,10.78
2023-03-25T07:21:51.455Z,10.77
2023-03-25T07:24:29.207Z,10.71
2023-03-25T07:29:51.648Z,10.66
2023-03-25T07:32:22.009Z,10.58
2023-03-25T07:35:05.152Z,10.59
2023-03-25T07:37:45.637Z,10.55
2023-03-25T07:40:17.246Z,10.53
2023-03-25T07:45:58.067Z,10.58
2023-03-25T07:48:39.271Z,10.46
2023-03-25T07:51:18.942Z,10.30
2023-03-25T07:53:49.604Z,10.36
2023-03-25T07:56:19.976Z,10.31
2023-03-25T08:01:38.370Z,10.09
2023-03-25T08:04:09.226Z,10.12
2023-03-25T08:06:41.361Z,9.98
2023-03-25T08:09:15.812Z,9.85
2023-03-25T08:11:47.636Z,9.91
2023-03-25T08:14:15.482Z,10.00
2023-03-25T08:19:33.693Z,9.72
2023-03-25T08:22:04.062Z,9.81
2023-03-25T08:24:35.547Z,9.79
2023-03-25T08:27:13.889Z,9.82
2023-03-25T08:29:49.258Z,9.78
2023-03-25T08:32:18.896Z,9.81
2023-03-25T08:34:48.651Z,9.70
2023-03-25T08:37:21.157Z,9.67
2023-03-25T08:42:43.086Z,9.66
2023-03-25T08:45:18.959Z,9.60
2023-03-25T08:47:49.700Z,9.65
2023-03-25T08:53:08.085Z,9.52
2023-03-25T08:55:38.661Z,9.66
2023-03-25T08:58:10.653Z,9.62
2023-03-25T09:00:38.702Z,9.66
2023-03-25T09:03:09.342Z,9.48
2023-03-25T09:05:42.109Z,9.52
2023-03-25T09:08:13.155Z,9.51
2023-03-25T09:10:43.560Z,9.66
2023-03-25T09:13:18.322Z,9.67
2023-03-25T09:15:49.134Z,9.79
2023-03-25T09:18:19.268Z,9.83
2023-03-25T09:20:54.301Z,9.62
2023-03-25T09:23:28.334Z,9.70
2023-03-25T09:26:08.092Z,9.49
2023-03-25T09:28:39.645Z,9.67
2023-03-25T09:31:12.120Z,9.71
2023-03-25T09:33:39.923Z,9.69
2023-03-25T09:36:15.180Z,9.85
2023-03-25T09:38:43.522Z,9.64
2023-03-25T09:41:55.677Z,9.63
2023-03-25T09:44:31.060Z,9.68
2023-03-25T09:47:05.078Z,9.48
2023-03-25T09:49:43.285Z,9.64
2023-03-25T09:55:25.327Z,9.51
2023-03-25T09:58:06.215Z,9.48
2023-03-25T10:00:40.296Z,9.34
2023-03-25T10:03:54.602Z,9.06
2023-03-25T10:06:29.801Z,9.02
2023-03-25T10:09:33.433Z,8.94
2023-03-25T10:12:17.244Z,9.16
2023-03-25T10:15:25.592Z,9.16
2023-03-25T10:21:24.676Z,9.20
2023-03-25T10:24:07.620Z,9.21
2023-03-25T10:26:53.285Z,9.18
2023-03-25T10:32:24.430Z,9.04
2023-03-25T10:34:56.277Z,8.91
2023-03-25T10:37:32.445Z,8.93
2023-03-25T10:40:36.034Z,9.09
2023-03-25T10:43:32.478Z,9.09
2023-03-25T10:46:47.735Z,9.09
2023-03-25T10:49:22.068Z,9.14
2023-03-25T10:51:54.872Z,8.79
2023-03-25T10:54:26.731Z,8.68
2023-03-25T10:57:11.233Z,8.76
2023-03-25T10:59:52.421Z,8.45
2023-03-25T11:02:29.899Z,8.71
2023-03-25T11:05:03.129Z,8.59
2023-03-25T11:08:18.129Z,8.66
2023-03-25T11:10:57.413Z,8.48
2023-03-25T11:13:48.495Z,8.51
2023-03-25T11:16:22.682Z,8.45
2023-03-25T11:18:59.508Z,8.49
2023-03-25T11:21:38.646Z,8.47
2023-03-25T11:24:09.657Z,8.61
2023-03-25T11:26:42.646Z,8.62
2023-03-25T11:29:20.039Z,8.72
2023-03-25T11:32:08.136Z,8.65
2023-03-25T11:34:42.707Z,8.75
2023-03-25T11:37:39.097Z,8.70
2023-03-25T11:40:21.530Z,8.70
2023-03-25T11:43:06.110Z,8.68
2023-03-25T11:45:46.647Z,8.56
2023-03-25T11:48:37.473Z,8.60
2023-03-25T11:51:14.822Z,8.73
2023-03-25T11:53:50.839Z,8.68
2023-03-25T11:56:26.977Z,8.51
2023-03-25T11:59:01.457Z,8.38
2023-03-25T12:01:51.960Z,8.37
2023-03-25T12:04:28.348Z,8.22
2023-03-25T12:07:27.654Z,8.21
2023-03-25T12:10:07.047Z,8.39
2023-03-25T12:13:00.243Z,8.29
2023-03-25T12:15:52.312Z,8.23
2023-03-25T12:18:41.946Z,8.23
2023-03-25T12:21:40.483Z,8.19
2023-03-25T12:24:11.731Z,8.25
2023-03-25T12:27:22.846Z,8.31
2023-03-25T12:30:22.206Z,8.36
2023-03-25T12:33:41.901Z,8.33
2023-03-25T12:36:36.803Z,8.15
2023-03-25T12:39:43.674Z,8.20
2023-03-25T12:43:10.092Z,8.45
2023-03-25T12:46:08.332Z,8.66
2023-03-25T12:49:27.472Z,8.57
2023-03-25T12:52:11.726Z,8.52
2023-03-25T12:55:11.530Z,8.70
2023-03-25T12:58:02.335Z,8.79
2023-03-25T13:00:57.906Z,9.05
2023-03-25T13:04:09.940Z,9.30
2023-03-25T13:06:50.893Z,11.39
2023-03-25T13:09:28.379Z,12.61
2023-03-25T13:12:29.169Z,12.35
2023-03-25T13:15:26.097Z,12.18
2023-03-25T13:18:16.559Z,12.92
2023-03-25T13:21:13.377Z,14.12
2023-03-25T13:23:44.756Z,14.23
2023-03-25T13:26:23.566Z,13.26
2023-03-25T13:28:59.264Z,12.39
2023-03-25T13:31:35.897Z,11.38
2023-03-25T13:34:19.164Z,11.40
2023-03-25T13:37:31.708Z,11.23
2023-03-25T13:40:14.143Z,10.98
2023-03-25T13:43:20.683Z,10.90
2023-03-25T13:46:11.866Z,10.83
2023-03-25T13:48:59.423Z,10.94
2023-03-25T13:51:27.829Z,10.89
2023-03-25T13:54:25.578Z,10.60
2023-03-25T13:57:36.473Z,10.57
2023-03-25T14:04:16.795Z,11.12
2023-03-25T14:06:54.509Z,11.05
2023-03-25T14:10:08.586Z,11.20
2023-03-25T14:13:01.822Z,11.19
2023-03-25T14:15:41.340Z,12.12
2023-03-25T14:18:18.885Z,12.96
2023-03-25T14:20:52.610Z,12.94
2023-03-25T14:23:32.327Z,14.96
2023-03-25T14:29:09.906Z,18.14
2023-03-25T14:31:40.027Z,18.83
2023-03-25T14:34:19.566Z,19.82
2023-03-25T14:39:36.424Z,19.29
2023-03-25T14:42:31.553Z,20.09
2023-03-25T14:45:44.421Z,17.83
2023-03-25T14:48:52.330Z,17.79
2023-03-25T14:51:34.623Z,16.81
2023-03-25T14:54:36.409Z,17.75
2023-03-25T15:00:54.741Z,21.41
2023-03-25T15:03:29.456Z,21.57
2023-03-25T15:06:06.117Z,21.04
2023-03-25T15:08:41.563Z,18.70
2023-03-25T15:11:14.979Z,21.18
2023-03-25T15:13:52.818Z,23.41
2023-03-25T15:16:47.650Z,20.91
2023-03-25T15:19:20.648Z,19.14
2023-03-25T15:22:01.063Z,21.40
2023-03-25T15:24:43.418Z,22.01
2023-03-25T15:27:51.827Z,19.36
2023-03-25T15:30:59.957Z,21.87
2023-03-25T15:33:44.836Z,19.29
2023-03-25T15:36:40.167Z,17.48
2023-03-25T15:39:39.279Z,17.37
2023-03-25T15:42:36.261Z,14.89
2023-03-25T15:45:34.569Z,14.39
2023-03-25T15:51:56.041Z,14.13
2023-03-25T15:55:08.986Z,14.96
2023-03-25T16:00:44.694Z,13.67
2023-03-25T16:03:29.056Z,14.48
2023-03-25T16:06:04.132Z,15.50
2023-03-25T16:08:41.897Z,15.03
2023-03-25T16:11:30.999Z,14.49
2023-03-25T16:14:16.606Z,13.67
2023-03-25T16:16:58.993Z,13.23
2023-03-25T16:19:42.387Z,13.32
2023-03-25T16:22:21.078Z,13.03
2023-03-25T16:27:48.182Z,12.40
2023-03-25T16:30:39.749Z,12.72
2023-03-25T16:33:11.996Z,12.05
2023-03-25T16:36:04.348Z,12.02
2023-03-25T16:38:38.428Z,11.93
2023-03-25T16:41:16.845Z,11.90
2023-03-25T16:43:49.940Z,11.72
2023-03-25T16:46:26.243Z,11.45
2023-03-25T16:48:57.948Z,11.40
2023-03-25T16:51:37.424Z,11.39
2023-03-25T16:54:23.462Z,11.30
2023-03-25T16:56:54.402Z,10.69
2023-03-25T16:59:42.535Z,10.85
2023-03-25T17:02:33.485Z,10.98
2023-03-25T17:05:24.509Z,10.20
2023-03-25T17:08:08.092Z,10.15
2023-03-25T17:10:55.216Z,9.87
2023-03-25T17:13:56.066Z,9.63
2023-03-25T17:16:27.716Z,9.82
2023-03-25T17:19:11.924Z,10.13
2023-03-25T17:22:05.541Z,9.59
2023-03-25T17:24:45.717Z,9.61
2023-03-25T17:27:44.255Z,9.09
2023-03-25T17:30:48.522Z,9.18
2023-03-25T17:33:39.833Z,8.85
2023-03-25T17:36:22.716Z,8.47
2023-03-25T17:38:53.886Z,8.70
2023-03-25T17:44:17.877Z,8.27
2023-03-25T17:46:58.349Z,8.23
2023-03-25T17:49:34.753Z,7.86
2023-03-25T17:52:05.168Z,7.61
2023-03-25T17:54:41.689Z,7.51
2023-03-25T17:57:30.599Z,7.58
2023-03-25T18:00:05.608Z,7.70
2023-03-25T18:02:37.692Z,7.52
2023-03-25T18:05:19.724Z,7.49
2023-03-25T18:07:52.595Z,7.85
2023-03-25T18:10:27.484Z,7.63
2023-03-25T18:13:09.499Z,7.67
2023-03-25T18:15:42.193Z,7.34
2023-03-25T18:18:18.692Z,6.96
2023-03-25T18:20:52.276Z,7.42
2023-03-25T18:23:21.628Z,7.60
2023-03-25T18:25:52.544Z,7.22
2023-03-25T18:28:26.982Z,7.07
2023-03-25T18:31:00.568Z,6.96
2023-03-25T18:33:37.750Z,6.87
2023-03-25T18:36:09.493Z,7.08
2023-03-25T18:38:48.523Z,7.20
2023-03-25T18:41:19.380Z,7.18
2023-03-25T18:43:50.759Z,6.81
2023-03-25T18:46:27.240Z,6.82
2023-03-25T18:49:04.738Z,6.62
2023-03-25T18:51:32.747Z,6.57
2023-03-25T18:54:11.433Z,6.49
2023-03-25T18:59:30.105Z,6.60
2023-03-25T19:02:03.795Z,6.48
2023-03-25T19:04:50.471Z,6.30
2023-03-25T19:07:34.284Z,6.05
2023-03-25T19:10:05.662Z,5.87
2023-03-25T19:12:43.231Z,6.02
2023-03-25T19:15:27.658Z,5.93
2023-03-25T19:18:05.800Z,6.09
2023-03-25T19:20:39.082Z,6.16
2023-03-25T19:23:08.374Z,5.72
2023-03-25T19:25:40.617Z,6.02
2023-03-25T19:28:11.044Z,6.39
2023-03-25T19:30:54.086Z,6.19
2023-03-25T19:33:22.240Z,5.84
2023-03-25T19:38:39.385Z,6.29
2023-03-25T19:41:11.167Z,6.54
2023-03-25T19:43:47.303Z,6.06
2023-03-25T19:46:28.901Z,5.86
2023-03-25T19:48:56.911Z,5.83
2023-03-25T19:51:29.829Z,5.86
2023-03-25T19:54:00.885Z,6.02
2023-03-25T19:59:24.682Z,5.87
2023-03-25T20:01:55.770Z,5.75
2023-03-25T20:04:31.651Z,5.45
2023-03-25T20:07:02.355Z,5.04
2023-03-25T20:09:33.851Z,4.69
2023-03-25T20:12:07.281Z,5.02
2023-03-25T20:14:41.207Z,4.64
2023-03-25T20:17:11.619Z,4.80
2023-03-25T20:19:42.040Z,5.09
2023-03-25T20:22:25.896Z,5.28
2023-03-25T20:25:03.576Z,5.62
2023-03-25T20:27:40.272Z,5.78
2023-03-25T20:30:13.301Z,5.70
2023-03-25T20:32:45.703Z,5.62
2023-03-25T20:35:27.533Z,5.84
2023-03-25T20:37:56.339Z,5.60
2023-03-25T20:40:37.174Z,5.32
2023-03-25T20:46:06.539Z,5.49
2023-03-25T20:48:40.112Z,5.49
2023-03-25T20:51:13.157Z,5.42
2023-03-25T20:54:03.723Z,5.31
2023-03-25T20:56:44.155Z,5.52
2023-03-25T20:59:17.790Z,5.26
2023-03-25T21:01:50.576Z,5.00
2023-03-25T21:04:27.482Z,5.47
2023-03-25T21:06:57.786Z,5.43
2023-03-25T21:09:28.299Z,5.59
2023-03-25T21:11:58.680Z,5.57
2023-03-25T21:14:37.172Z,5.10
2023-03-25T21:17:13.608Z,5.53
2023-03-25T21:19:42.934Z,5.55
2023-03-25T21:22:14.057Z,5.26
2023-03-25T21:24:44.107Z,5.32
2023-03-25T21:27:19.350Z,5.46
2023-03-25T21:29:47.524Z,5.37
2023-03-25T21:32:15.246Z,4.81
2023-03-25T21:34:45.796Z,4.68
2023-03-25T21:37:17.155Z,5.00
2023-03-25T21:39:50.472Z,4.99
2023-03-25T21:42:30.081Z,5.06
2023-03-25T21:45:02.654Z,4.72
2023-03-25T21:47:37.272Z,4.65
2023-03-25T21:50:20.761Z,4.64
2023-03-25T21:52:49.257Z,4.38
2023-03-25T21:55:29.842Z,4.25
2023-03-25T21:58:01.148Z,4.57
2023-03-25T22:00:33.958Z,4.83
2023-03-25T22:03:10.084Z,4.51
2023-03-25T22:05:42.426Z,4.63
2023-03-25T22:08:14.194Z,4.93
2023-03-25T22:10:44.902Z,5.17
2023-03-25T22:13:15.627Z,5.09
2023-03-25T22:18:40.524Z,4.99
2023-03-25T22:21:29.585Z,5.06
2023-03-25T22:24:02.385Z,5.10
2023-03-25T22:26:35.065Z,4.96
2023-03-25T22:29:19.160Z,5.34
2023-03-25T22:31:50.776Z,5.43
2023-03-25T22:34:24.174Z,5.58
2023-03-25T22:39:40.943Z,5.55
2023-03-25T22:42:13.468Z,5.70
2023-03-25T22:44:44.906Z,5.72
2023-03-25T22:47:15.466Z,5.95
2023-03-25T22:49:43.157Z,5.22
2023-03-25T22:52:12.616Z,5.79
2023-03-25T22:57:24.297Z,5.51
2023-03-25T22:59:58.130Z,5.53
2023-03-25T23:02:40.785Z,5.58
2023-03-25T23:05:11.363Z,5.55
2023-03-25T23:07:39.317Z,5.23
2023-03-25T23:10:10.536Z,5.08
2023-03-25T23:12:41.493Z,5.33
2023-03-25T23:15:19.520Z,5.29
2023-03-25T23:17:49.623Z,5.44
2023-03-25T23:20:27.044Z,5.72
2023-03-25T23:23:04.697Z,5.51
2023-03-25T23:25:33.937Z,5.33
2023-03-25T23:28:06.922Z,5.16
2023-03-25T23:33:30.268Z,5.54
2023-03-25T23:36:07.829Z,5.63
2023-03-25T23:38:39.648Z,5.68
2023-03-25T23:41:11.218Z,5.58
2023-03-25T23:43:41.819Z,5.66
2023-03-25T23:46:15.295Z,5.76
2023-03-25T23:48:44.519Z,5.94
2023-03-25T23:54:21.574Z,5.79
2023-03-25T23:57:02.201Z,5.84
2023-03-25T23:59:32.467Z,5.78
